sensor_id;sensor_type;location;lat;lon;timestamp;pressure;altitude;pressure_sealevel;temperature;humidity
57644;BME280;43474;46.510;6.686;2023-04-28T00:01:18;96382.06;;;12.84;100.00
57644;BME280;43474;46.510;6.686;2023-04-28T00:03:43;96383.06;;;12.78;100.00
57644;BME280;43474;46.510;6.686;2023-04-28T00:06:09;96379.16;;;12.85;100.00
57644;BME280;43474;46.510;6.686;2023-04-28T00:08:35;96371.63;;;12.77;100.00
57644;BME280;43474;46.510;6.686;2023-04-28T00:11:01;96386.91;;;12.92;100.00
57644;BME280;43474;46.510;6.686;2023-04-28T00:13:27;96372.72;;;12.81;100.00
57644;BME280;43474;46.510;6.686;2023-04-28T00:15:52;96384.78;;;12.89;100.00
57644;BME280;43474;46.510;6.686;2023-04-28T00:18:19;96363.25;;;12.90;100.00
57644;BME280;43474;46.510;6.686;2023-04-28T00:20:45;96384.34;;;13.02;100.00
57644;BME280;43474;46.510;6.686;2023-04-28T00:23:10;96377.97;;;12.98;100.00
57644;BME280;43474;46.510;6.686;2023-04-28T00:25:36;96376.63;;;13.01;100.00
57644;BME280;43474;46.510;6.686;2023-04-28T00:28:01;96384.91;;;13.04;100.00
57644;BME280;43474;46.510;6.686;2023-04-28T00:30:28;96380.44;;;13.10;100.00
57644;BME280;43474;46.510;6.686;2023-04-28T00:32:54;96362.28;;;13.02;100.00
57644;BME280;43474;46.510;6.686;2023-04-28T00:35:20;96386.59;;;13.15;100.00
57644;BME280;43474;46.510;6.686;2023-04-28T00:37:46;96380.47;;;13.15;100.00
57644;BME280;43474;46.510;6.686;2023-04-28T00:40:12;96369.19;;;13.03;100.00
57644;BME280;43474;46.510;6.686;2023-04-28T00:42:37;96382.56;;;13.08;100.00
57644;BME280;43474;46.510;6.686;2023-04-28T00:45:03;96371.81;;;12.98;100.00
57644;BME280;43474;46.510;6.686;2023-04-28T00:47:32;96375.78;;;12.95;100.00
57644;BME280;43474;46.510;6.686;2023-04-28T00:49:59;96361.34;;;12.86;100.00
57644;BME280;43474;46.510;6.686;2023-04-28T00:52:26;96358.84;;;13.06;100.00
57644;BME280;43474;46.510;6.686;2023-04-28T00:54:52;96343.34;;;12.93;100.00
57644;BME280;43474;46.510;6.686;2023-04-28T00:57:18;96354.06;;;13.03;100.00
57644;BME280;43474;46.510;6.686;2023-04-28T00:59:43;96341.13;;;12.85;100.00
57644;BME280;43474;46.510;6.686;2023-04-28T01:02:09;96345.78;;;13.00;100.00
57644;BME280;43474;46.510;6.686;2023-04-28T01:04:42;96339.00;;;12.87;100.00
57644;BME280;43474;46.510;6.686;2023-04-28T01:07:08;96366.16;;;12.89;100.00
57644;BME280;43474;46.510;6.686;2023-04-28T01:09:33;96337.72;;;12.62;100.00
57644;BME280;43474;46.510;6.686;2023-04-28T01:11:59;96355.63;;;12.72;100.00
57644;BME280;43474;46.510;6.686;2023-04-28T01:14:25;96358.50;;;12.65;100.00
57644;BME280;43474;46.510;6.686;2023-04-28T01:16:50;96370.31;;;12.80;100.00
57644;BME280;43474;46.510;6.686;2023-04-28T01:19:21;96374.50;;;12.71;100.00
57644;BME280;43474;46.510;6.686;2023-04-28T01:21:48;96368.38;;;12.70;100.00
57644;BME280;43474;46.510;6.686;2023-04-28T01:24:13;96360.13;;;12.72;100.00
57644;BME280;43474;46.510;6.686;2023-04-28T01:26:39;96363.91;;;12.76;100.00
57644;BME280;43474;46.510;6.686;2023-04-28T01:29:04;96363.69;;;12.82;100.00
57644;BME280;43474;46.510;6.686;2023-04-28T01:31:30;96358.38;;;12.82;100.00
57644;BME280;43474;46.510;6.686;2023-04-28T01:33:56;96342.94;;;12.79;100.00
57644;BME280;43474;46.510;6.686;2023-04-28T01:36:22;96345.63;;;12.84;100.00
57644;BME280;43474;46.510;6.686;2023-04-28T01:38:51;96333.91;;;12.80;100.00
57644;BME280;43474;46.510;6.686;2023-04-28T01:41:16;96339.22;;;12.80;100.00
57644;BME280;43474;46.510;6.686;2023-04-28T01:43:42;96321.63;;;12.74;100.00
57644;BME280;43474;46.510;6.686;2023-04-28T01:46:09;96341.13;;;12.85;100.00
57644;BME280;43474;46.510;6.686;2023-04-28T01:48:34;96354.91;;;12.82;100.00
57644;BME280;43474;46.510;6.686;2023-04-28T01:51:00;96346.44;;;12.85;100.00
57644;BME280;43474;46.510;6.686;2023-04-28T01:53:26;96360.94;;;12.99;100.00
57644;BME280;43474;46.510;6.686;2023-04-28T01:55:52;96369.44;;;13.01;100.00
57644;BME280;43474;46.510;6.686;2023-04-28T01:58:17;96353.41;;;12.91;100.00
57644;BME280;43474;46.510;6.686;2023-04-28T02:00:43;96368.13;;;12.99;100.00
57644;BME280;43474;46.510;6.686;2023-04-28T02:03:08;96330.25;;;12.91;100.00
57644;BME280;43474;46.510;6.686;2023-04-28T02:05:35;96355.03;;;12.97;100.00
57644;BME280;43474;46.510;6.686;2023-04-28T02:08:01;96340.16;;;12.96;100.00
57644;BME280;43474;46.510;6.686;2023-04-28T02:10:27;96351.00;;;12.89;100.00
57644;BME280;43474;46.510;6.686;2023-04-28T02:12:53;96353.19;;;12.98;100.00
57644;BME280;43474;46.510;6.686;2023-04-28T02:15:19;96353.19;;;12.98;100.00
57644;BME280;43474;46.510;6.686;2023-04-28T02:17:44;96347.53;;;12.89;100.00
57644;BME280;43474;46.510;6.686;2023-04-28T02:20:10;96344.38;;;12.92;100.00
57644;BME280;43474;46.510;6.686;2023-04-28T02:22:36;96351.41;;;12.76;100.00
57644;BME280;43474;46.510;6.686;2023-04-28T02:25:02;96346.13;;;12.81;100.00
57644;BME280;43474;46.510;6.686;2023-04-28T02:27:27;96370.28;;;13.07;100.00
57644;BME280;43474;46.510;6.686;2023-04-28T02:29:53;96358.34;;;13.09;100.00
57644;BME280;43474;46.510;6.686;2023-04-28T02:32:18;96358.19;;;13.21;100.00
57644;BME280;43474;46.510;6.686;2023-04-28T02:34:44;96351.31;;;13.25;100.00
57644;BME280;43474;46.510;6.686;2023-04-28T02:37:10;96362.28;;;13.29;100.00
57644;BME280;43474;46.510;6.686;2023-04-28T02:39:36;96357.44;;;13.26;100.00
57644;BME280;43474;46.510;6.686;2023-04-28T02:42:02;96349.19;;;13.27;100.00
57644;BME280;43474;46.510;6.686;2023-04-28T02:44:29;96340.69;;;13.25;100.00
57644;BME280;43474;46.510;6.686;2023-04-28T02:46:55;96356.41;;;13.32;100.00
57644;BME280;43474;46.510;6.686;2023-04-28T02:49:21;96353.97;;;13.25;100.00
57644;BME280;43474;46.510;6.686;2023-04-28T02:51:46;96357.94;;;13.23;100.00
57644;BME280;43474;46.510;6.686;2023-04-28T02:54:12;96358.84;;;13.33;100.00
57644;BME280;43474;46.510;6.686;2023-04-28T02:56:37;96356.91;;;13.24;100.00
57644;BME280;43474;46.510;6.686;2023-04-28T02:59:05;96352.06;;;13.20;100.00
57644;BME280;43474;46.510;6.686;2023-04-28T03:01:31;96348.94;;;13.24;100.00
57644;BME280;43474;46.510;6.686;2023-04-28T03:03:57;96360.84;;;13.21;100.00
57644;BME280;43474;46.510;6.686;2023-04-28T03:06:23;96373.19;;;13.32;100.00
57644;BME280;43474;46.510;6.686;2023-04-28T03:08:48;96375.19;;;13.20;100.00
57644;BME280;43474;46.510;6.686;2023-04-28T03:11:14;96357.78;;;13.07;100.00
57644;BME280;43474;46.510;6.686;2023-04-28T03:13:39;96363.88;;;13.03;100.00
57644;BME280;43474;46.510;6.686;2023-04-28T03:16:05;96376.94;;;13.04;100.00
57644;BME280;43474;46.510;6.686;2023-04-28T03:18:32;96378.31;;;13.12;100.00
57644;BME280;43474;46.510;6.686;2023-04-28T03:20:57;96374.13;;;12.89;100.00
57644;BME280;43474;46.510;6.686;2023-04-28T03:23:23;96387.72;;;12.92;100.00
57644;BME280;43474;46.510;6.686;2023-04-28T03:25:48;96376.53;;;12.90;100.00
57644;BME280;43474;46.510;6.686;2023-04-28T03:28:14;96388.59;;;12.98;100.00
57644;BME280;43474;46.510;6.686;2023-04-28T03:30:40;96381.38;;;12.93;100.00
57644;BME280;43474;46.510;6.686;2023-04-28T03:33:06;96384.88;;;12.99;100.00
57644;BME280;43474;46.510;6.686;2023-04-28T03:35:31;96385.41;;;13.01;100.00
57644;BME280;43474;46.510;6.686;2023-04-28T03:37:57;96383.28;;;12.98;100.00
57644;BME280;43474;46.510;6.686;2023-04-28T03:40:22;96364.50;;;12.83;100.00
57644;BME280;43474;46.510;6.686;2023-04-28T03:42:48;96368.91;;;12.99;100.00
57644;BME280;43474;46.510;6.686;2023-04-28T03:45:13;96376.06;;;12.93;100.00
57644;BME280;43474;46.510;6.686;2023-04-28T03:47:39;96373.38;;;12.93;100.00
57644;BME280;43474;46.510;6.686;2023-04-28T03:50:05;96366.25;;;12.99;100.00
57644;BME280;43474;46.510;6.686;2023-04-28T03:52:31;96349.16;;;12.90;100.00
57644;BME280;43474;46.510;6.686;2023-04-28T03:54:57;96374.19;;;12.94;100.00
57644;BME280;43474;46.510;6.686;2023-04-28T03:57:22;96380.34;;;13.00;100.00
57644;BME280;43474;46.510;6.686;2023-04-28T03:59:48;96376.91;;;12.99;100.00
57644;BME280;43474;46.510;6.686;2023-04-28T04:02:13;96371.84;;;13.03;100.00
57644;BME280;43474;46.510;6.686;2023-04-28T04:04:39;96353.97;;;12.93;100.00
57644;BME280;43474;46.510;6.686;2023-04-28T04:07:05;96342.53;;;12.98;100.00
57644;BME280;43474;46.510;6.686;2023-04-28T04:09:30;96339.34;;;12.96;100.00
57644;BME280;43474;46.510;6.686;2023-04-28T04:11:56;96326.63;;;13.03;100.00
57644;BME280;43474;46.510;6.686;2023-04-28T04:14:22;96346.88;;;13.04;100.00
57644;BME280;43474;46.510;6.686;2023-04-28T04:16:48;96351.44;;;13.08;100.00
57644;BME280;43474;46.510;6.686;2023-04-28T04:19:14;96350.56;;;13.03;100.00
57644;BME280;43474;46.510;6.686;2023-04-28T04:21:39;96361.28;;;13.08;100.00
57644;BME280;43474;46.510;6.686;2023-04-28T04:24:05;96345.00;;;13.04;100.00
57644;BME280;43474;46.510;6.686;2023-04-28T04:26:31;96351.94;;;13.05;100.00
57644;BME280;43474;46.510;6.686;2023-04-28T04:28:57;96359.97;;;13.10;100.00
57644;BME280;43474;46.510;6.686;2023-04-28T04:31:22;96356.72;;;13.03;100.00
57644;BME280;43474;46.510;6.686;2023-04-28T04:33:48;96364.66;;;12.98;100.00
57644;BME280;43474;46.510;6.686;2023-04-28T04:36:14;96372.38;;;13.00;100.00
57644;BME280;43474;46.510;6.686;2023-04-28T04:38:39;96371.69;;;13.14;100.00
57644;BME280;43474;46.510;6.686;2023-04-28T04:41:05;96356.50;;;13.10;100.00
57644;BME280;43474;46.510;6.686;2023-04-28T04:43:31;96377.13;;;13.25;100.00
57644;BME280;43474;46.510;6.686;2023-04-28T04:45:56;96377.13;;;13.25;100.00
57644;BME280;43474;46.510;6.686;2023-04-28T04:48:22;96375.00;;;13.27;100.00
57644;BME280;43474;46.510;6.686;2023-04-28T04:50:48;96366.88;;;13.11;100.00
57644;BME280;43474;46.510;6.686;2023-04-28T04:53:13;96374.38;;;13.14;100.00
57644;BME280;43474;46.510;6.686;2023-04-28T04:55:39;96372.00;;;13.18;100.00
57644;BME280;43474;46.510;6.686;2023-04-28T04:58:04;96390.78;;;13.33;100.00
57644;BME280;43474;46.510;6.686;2023-04-28T05:00:30;96364.91;;;13.24;100.00
57644;BME280;43474;46.510;6.686;2023-04-28T05:02:56;96359.25;;;13.20;100.00
57644;BME280;43474;46.510;6.686;2023-04-28T05:05:21;96377.66;;;13.27;100.00
57644;BME280;43474;46.510;6.686;2023-04-28T05:07:47;96386.00;;;13.35;100.00
57644;BME280;43474;46.510;6.686;2023-04-28T05:10:12;96379.53;;;13.26;100.00
57644;BME280;43474;46.510;6.686;2023-04-28T05:12:38;96371.00;;;13.24;100.00
57644;BME280;43474;46.510;6.686;2023-04-28T05:15:07;96372.50;;;13.15;100.00
57644;BME280;43474;46.510;6.686;2023-04-28T05:17:33;96379.38;;;13.11;100.00
57644;BME280;43474;46.510;6.686;2023-04-28T05:19:59;96380.22;;;13.16;100.00
57644;BME280;43474;46.510;6.686;2023-04-28T05:22:24;96377.56;;;13.16;100.00
57644;BME280;43474;46.510;6.686;2023-04-28T05:24:51;96380.63;;;13.30;100.00
57644;BME280;43474;46.510;6.686;2023-04-28T05:27:17;96381.22;;;13.37;100.00
57644;BME280;43474;46.510;6.686;2023-04-28T05:29:43;96376.75;;;13.43;100.00
57644;BME280;43474;46.510;6.686;2023-04-28T05:32:08;96387.16;;;13.50;100.00
57644;BME280;43474;46.510;6.686;2023-04-28T05:34:34;96384.47;;;13.44;100.00
57644;BME280;43474;46.510;6.686;2023-04-28T05:37:00;96378.88;;;13.46;100.00
57644;BME280;43474;46.510;6.686;2023-04-28T05:39:26;96373.59;;;13.51;100.00
57644;BME280;43474;46.510;6.686;2023-04-28T05:41:51;96377.91;;;13.62;100.00
57644;BME280;43474;46.510;6.686;2023-04-28T05:44:17;96381.94;;;13.65;100.00
57644;BME280;43474;46.510;6.686;2023-04-28T05:46:42;96384.91;;;13.68;100.00
57644;BME280;43474;46.510;6.686;2023-04-28T05:49:09;96387.59;;;13.74;100.00
57644;BME280;43474;46.510;6.686;2023-04-28T05:51:34;96400.44;;;13.87;100.00
57644;BME280;43474;46.510;6.686;2023-04-28T05:54:00;96396.75;;;13.88;100.00
57644;BME280;43474;46.510;6.686;2023-04-28T05:56:25;96396.50;;;13.94;100.00
57644;BME280;43474;46.510;6.686;2023-04-28T05:58:51;96387.69;;;13.89;100.00
57644;BME280;43474;46.510;6.686;2023-04-28T06:01:17;96389.88;;;14.02;100.00
57644;BME280;43474;46.510;6.686;2023-04-28T06:03:43;96391.81;;;14.17;100.00
57644;BME280;43474;46.510;6.686;2023-04-28T06:06:10;96395.53;;;14.11;100.00
57644;BME280;43474;46.510;6.686;2023-04-28T06:08:37;96404.38;;;14.21;100.00
57644;BME280;43474;46.510;6.686;2023-04-28T06:11:03;96418.81;;;14.31;100.00
57644;BME280;43474;46.510;6.686;2023-04-28T06:13:28;96402.00;;;14.30;100.00
57644;BME280;43474;46.510;6.686;2023-04-28T06:15:54;96404.41;;;14.32;100.00
57644;BME280;43474;46.510;6.686;2023-04-28T06:18:20;96412.16;;;14.33;100.00
57644;BME280;43474;46.510;6.686;2023-04-28T06:20:45;96400.94;;;14.31;100.00
57644;BME280;43474;46.510;6.686;2023-04-28T06:23:11;96406.59;;;14.40;100.00
57644;BME280;43474;46.510;6.686;2023-04-28T06:25:37;96399.16;;;14.47;100.00
57644;BME280;43474;46.510;6.686;2023-04-28T06:28:03;96399.22;;;14.52;100.00
57644;BME280;43474;46.510;6.686;2023-04-28T06:30:28;96414.69;;;14.60;100.00
57644;BME280;43474;46.510;6.686;2023-04-28T06:32:54;96404.00;;;14.55;100.00
57644;BME280;43474;46.510;6.686;2023-04-28T06:35:22;96416.03;;;14.58;100.00
57644;BME280;43474;46.510;6.686;2023-04-28T06:37:48;96402.16;;;14.61;100.00
57644;BME280;43474;46.510;6.686;2023-04-28T06:40:13;96413.59;;;14.56;100.00
57644;BME280;43474;46.510;6.686;2023-04-28T06:42:39;96422.19;;;14.63;100.00
57644;BME280;43474;46.510;6.686;2023-04-28T06:45:05;96412.31;;;14.69;100.00
57644;BME280;43474;46.510;6.686;2023-04-28T06:47:31;96422.19;;;14.68;100.00
57644;BME280;43474;46.510;6.686;2023-04-28T06:49:56;96429.09;;;14.64;100.00
57644;BME280;43474;46.510;6.686;2023-04-28T06:52:22;96419.50;;;14.58;100.00
57644;BME280;43474;46.510;6.686;2023-04-28T06:54:49;96425.94;;;14.72;100.00
57644;BME280;43474;46.510;6.686;2023-04-28T06:57:15;96425.91;;;14.62;100.00
57644;BME280;43474;46.510;6.686;2023-04-28T06:59:40;96420.72;;;14.45;100.00
57644;BME280;43474;46.510;6.686;2023-04-28T07:02:09;96433.34;;;14.60;100.00
57644;BME280;43474;46.510;6.686;2023-04-28T07:04:35;96437.66;;;14.71;100.00
57644;BME280;43474;46.510;6.686;2023-04-28T07:07:01;96437.41;;;14.73;100.00
57644;BME280;43474;46.510;6.686;2023-04-28T07:09:27;96437.13;;;14.74;100.00
57644;BME280;43474;46.510;6.686;2023-04-28T07:11:53;96438.75;;;14.86;100.00
57644;BME280;43474;46.510;6.686;2023-04-28T07:14:18;96442.81;;;14.93;100.00
57644;BME280;43474;46.510;6.686;2023-04-28T07:16:44;96436.41;;;14.94;100.00
57644;BME280;43474;46.510;6.686;2023-04-28T07:19:10;96426.00;;;14.98;100.00
57644;BME280;43474;46.510;6.686;2023-04-28T07:21:35;96422.78;;;15.01;100.00
57644;BME280;43474;46.510;6.686;2023-04-28T07:24:01;96430.59;;;15.33;100.00
57644;BME280;43474;46.510;6.686;2023-04-28T07:26:27;96426.06;;;15.64;100.00
57644;BME280;43474;46.510;6.686;2023-04-28T07:28:52;96428.69;;;16.00;100.00
57644;BME280;43474;46.510;6.686;2023-04-28T07:31:18;96433.50;;;16.08;99.64
57644;BME280;43474;46.510;6.686;2023-04-28T07:33:44;96448.50;;;15.89;100.00
57644;BME280;43474;46.510;6.686;2023-04-28T07:36:12;96441.56;;;15.77;100.00
57644;BME280;43474;46.510;6.686;2023-04-28T07:38:38;96449.31;;;15.79;100.00
57644;BME280;43474;46.510;6.686;2023-04-28T07:41:04;96446.59;;;15.99;100.00
57644;BME280;43474;46.510;6.686;2023-04-28T07:43:30;96440.63;;;16.43;100.00
57644;BME280;43474;46.510;6.686;2023-04-28T07:45:56;96433.38;;;17.09;100.00
57644;BME280;43474;46.510;6.686;2023-04-28T07:48:22;96446.16;;;17.22;100.00
57644;BME280;43474;46.510;6.686;2023-04-28T07:50:47;96445.81;;;17.28;96.97
57644;BME280;43474;46.510;6.686;2023-04-28T07:53:13;96438.94;;;17.17;100.00
57644;BME280;43474;46.510;6.686;2023-04-28T07:55:38;96429.94;;;17.03;93.32
57644;BME280;43474;46.510;6.686;2023-04-28T07:58:07;96446.31;;;16.96;98.11
57644;BME280;43474;46.510;6.686;2023-04-28T08:00:32;96455.94;;;16.97;96.99
57644;BME280;43474;46.510;6.686;2023-04-28T08:02:58;96439.56;;;17.04;96.79
57644;BME280;43474;46.510;6.686;2023-04-28T08:05:24;96449.81;;;17.36;91.64
57644;BME280;43474;46.510;6.686;2023-04-28T08:07:50;96441.72;;;17.41;95.71
57644;BME280;43474;46.510;6.686;2023-04-28T08:10:15;96433.88;;;17.50;98.26
57644;BME280;43474;46.510;6.686;2023-04-28T08:12:41;96450.06;;;17.35;97.50
57644;BME280;43474;46.510;6.686;2023-04-28T08:15:08;96465.13;;;17.30;95.20
57644;BME280;43474;46.510;6.686;2023-04-28T08:17:34;96455.53;;;17.19;90.34
57644;BME280;43474;46.510;6.686;2023-04-28T08:19:59;96463.38;;;17.11;94.13
57644;BME280;43474;46.510;6.686;2023-04-28T08:22:25;96461.28;;;16.97;97.28
57644;BME280;43474;46.510;6.686;2023-04-28T08:24:51;96475.22;;;16.89;93.15
57644;BME280;43474;46.510;6.686;2023-04-28T08:27:16;96462.59;;;17.00;94.05
57644;BME280;43474;46.510;6.686;2023-04-28T08:29:42;96464.28;;;17.30;94.96
57644;BME280;43474;46.510;6.686;2023-04-28T08:32:08;96472.91;;;17.66;90.16
57644;BME280;43474;46.510;6.686;2023-04-28T08:34:34;96475.16;;;17.88;87.89
57644;BME280;43474;46.510;6.686;2023-04-28T08:37:00;96466.34;;;18.12;91.53
57644;BME280;43474;46.510;6.686;2023-04-28T08:39:25;96474.78;;;18.53;85.08
57644;BME280;43474;46.510;6.686;2023-04-28T08:41:52;96469.03;;;19.07;89.97
57644;BME280;43474;46.510;6.686;2023-04-28T08:44:18;96465.81;;;19.24;86.31
57644;BME280;43474;46.510;6.686;2023-04-28T08:46:45;96464.81;;;19.39;88.77
57644;BME280;43474;46.510;6.686;2023-04-28T08:49:16;96466.13;;;19.42;82.27
57644;BME280;43474;46.510;6.686;2023-04-28T08:51:48;96471.41;;;19.09;84.62
57644;BME280;43474;46.510;6.686;2023-04-28T08:54:15;96478.91;;;19.12;83.77
57644;BME280;43474;46.510;6.686;2023-04-28T08:56:41;96480.34;;;19.23;83.38
57644;BME280;43474;46.510;6.686;2023-04-28T08:59:10;96461.09;;;18.97;80.10
57644;BME280;43474;46.510;6.686;2023-04-28T09:01:37;96458.63;;;18.82;87.62
57644;BME280;43474;46.510;6.686;2023-04-28T09:04:04;96459.25;;;18.74;79.65
57644;BME280;43474;46.510;6.686;2023-04-28T09:06:37;96458.13;;;18.80;81.07
57644;BME280;43474;46.510;6.686;2023-04-28T09:09:23;96453.84;;;19.17;80.74
57644;BME280;43474;46.510;6.686;2023-04-28T09:11:53;96463.06;;;19.48;84.88
57644;BME280;43474;46.510;6.686;2023-04-28T09:14:21;96468.28;;;19.58;82.75
57644;BME280;43474;46.510;6.686;2023-04-28T09:16:47;96438.00;;;19.72;85.45
57644;BME280;43474;46.510;6.686;2023-04-28T09:19:14;96462.22;;;20.18;73.33
57644;BME280;43474;46.510;6.686;2023-04-28T09:21:48;96451.59;;;20.68;69.05
57644;BME280;43474;46.510;6.686;2023-04-28T09:24:34;96449.69;;;20.96;71.00
57644;BME280;43474;46.510;6.686;2023-04-28T09:27:04;96440.13;;;21.26;70.37
57644;BME280;43474;46.510;6.686;2023-04-28T09:29:30;96445.16;;;21.19;70.18
57644;BME280;43474;46.510;6.686;2023-04-28T09:34:44;96450.00;;;20.53;70.87
57644;BME280;43474;46.510;6.686;2023-04-28T09:37:21;96457.28;;;20.80;80.36
57644;BME280;43474;46.510;6.686;2023-04-28T09:39:48;96447.44;;;21.48;69.18
57644;BME280;43474;46.510;6.686;2023-04-28T09:42:37;96462.84;;;22.46;67.68
57644;BME280;43474;46.510;6.686;2023-04-28T09:45:08;96452.16;;;22.81;69.59
57644;BME280;43474;46.510;6.686;2023-04-28T09:47:36;96438.50;;;22.86;61.95
57644;BME280;43474;46.510;6.686;2023-04-28T09:50:07;96441.94;;;23.17;62.67
57644;BME280;43474;46.510;6.686;2023-04-28T09:52:39;96445.91;;;23.55;68.48
57644;BME280;43474;46.510;6.686;2023-04-28T09:55:06;96444.78;;;23.56;62.66
57644;BME280;43474;46.510;6.686;2023-04-28T09:57:35;96433.97;;;23.30;60.94
57644;BME280;43474;46.510;6.686;2023-04-28T10:00:02;96446.84;;;23.15;63.17
57644;BME280;43474;46.510;6.686;2023-04-28T10:02:31;96447.03;;;23.28;61.84
57644;BME280;43474;46.510;6.686;2023-04-28T10:04:58;96434.59;;;23.09;63.69
57644;BME280;43474;46.510;6.686;2023-04-28T10:07:25;96442.53;;;23.14;64.63
57644;BME280;43474;46.510;6.686;2023-04-28T10:09:51;96429.84;;;22.66;61.75
57644;BME280;43474;46.510;6.686;2023-04-28T10:12:22;96425.59;;;22.26;62.56
57644;BME280;43474;46.510;6.686;2023-04-28T10:14:49;96421.66;;;21.78;64.80
57644;BME280;43474;46.510;6.686;2023-04-28T10:17:19;96439.78;;;21.86;63.59
57644;BME280;43474;46.510;6.686;2023-04-28T10:19:47;96429.50;;;21.88;68.07
57644;BME280;43474;46.510;6.686;2023-04-28T10:25:24;96438.66;;;22.41;66.02
57644;BME280;43474;46.510;6.686;2023-04-28T10:27:50;96431.41;;;22.50;68.72
57644;BME280;43474;46.510;6.686;2023-04-28T10:30:22;96433.34;;;22.58;66.25
57644;BME280;43474;46.510;6.686;2023-04-28T10:35:45;96435.78;;;22.06;64.46
57644;BME280;43474;46.510;6.686;2023-04-28T10:38:19;96434.00;;;22.02;70.03
57644;BME280;43474;46.510;6.686;2023-04-28T10:40:49;96418.97;;;21.20;71.35
57644;BME280;43474;46.510;6.686;2023-04-28T10:56:24;96399.16;;;21.02;80.37
57644;BME280;43474;46.510;6.686;2023-04-28T10:58:54;96405.44;;;21.11;76.04
57644;BME280;43474;46.510;6.686;2023-04-28T11:06:37;96388.44;;;21.24;75.66
57644;BME280;43474;46.510;6.686;2023-04-28T11:12:02;96412.84;;;21.05;74.96
57644;BME280;43474;46.510;6.686;2023-04-28T11:17:12;96406.81;;;21.08;79.43
57644;BME280;43474;46.510;6.686;2023-04-28T11:19:42;96410.75;;;21.02;79.02
57644;BME280;43474;46.510;6.686;2023-04-28T11:22:16;96409.13;;;21.15;81.58
57644;BME280;43474;46.510;6.686;2023-04-28T11:24:59;96404.75;;;21.28;82.39
57644;BME280;43474;46.510;6.686;2023-04-28T11:27:27;96404.44;;;21.65;80.37
57644;BME280;43474;46.510;6.686;2023-04-28T11:29:53;96391.22;;;22.57;79.68
57644;BME280;43474;46.510;6.686;2023-04-28T11:32:27;96383.53;;;23.25;65.83
57644;BME280;43474;46.510;6.686;2023-04-28T11:34:53;96379.56;;;23.14;73.93
57644;BME280;43474;46.510;6.686;2023-04-28T11:37:18;96385.13;;;22.91;70.17
57644;BME280;43474;46.510;6.686;2023-04-28T11:39:45;96387.34;;;22.89;71.47
57644;BME280;43474;46.510;6.686;2023-04-28T11:42:11;96341.97;;;22.43;77.52
57644;BME280;43474;46.510;6.686;2023-04-28T11:44:37;96378.91;;;22.25;70.78
57644;BME280;43474;46.510;6.686;2023-04-28T11:47:04;96386.72;;;22.35;80.02
57644;BME280;43474;46.510;6.686;2023-04-28T11:49:40;96386.47;;;22.54;70.78
57644;BME280;43474;46.510;6.686;2023-04-28T11:52:07;96385.94;;;22.43;76.14
57644;BME280;43474;46.510;6.686;2023-04-28T11:54:34;96370.22;;;22.45;72.71
57644;BME280;43474;46.510;6.686;2023-04-28T11:57:00;96373.25;;;22.44;75.87
57644;BME280;43474;46.510;6.686;2023-04-28T11:59:30;96371.78;;;23.12;73.71
57644;BME280;43474;46.510;6.686;2023-04-28T12:02:01;96361.88;;;23.51;75.97
57644;BME280;43474;46.510;6.686;2023-04-28T12:04:38;96369.41;;;23.28;69.00
57644;BME280;43474;46.510;6.686;2023-04-28T12:09:29;96366.34;;;22.78;69.26
57644;BME280;43474;46.510;6.686;2023-04-28T12:11:57;96375.31;;;22.47;71.00
57644;BME280;43474;46.510;6.686;2023-04-28T12:14:24;96361.06;;;22.73;75.39
57644;BME280;43474;46.510;6.686;2023-04-28T12:16:50;96370.19;;;23.03;71.42
57644;BME280;43474;46.510;6.686;2023-04-28T12:19:16;96370.97;;;23.38;73.51
57644;BME280;43474;46.510;6.686;2023-04-28T12:22:01;96367.63;;;23.15;71.45
57644;BME280;43474;46.510;6.686;2023-04-28T12:24:27;96352.59;;;22.48;70.96
57644;BME280;43474;46.510;6.686;2023-04-28T12:26:53;96368.53;;;22.76;74.11
57644;BME280;43474;46.510;6.686;2023-04-28T12:29:35;96369.06;;;23.30;74.23
57644;BME280;43474;46.510;6.686;2023-04-28T12:32:05;96346.34;;;23.05;70.63
57644;BME280;43474;46.510;6.686;2023-04-28T12:34:30;96348.19;;;22.69;75.95
57644;BME280;43474;46.510;6.686;2023-04-28T12:37:02;96363.72;;;22.55;70.18
57644;BME280;43474;46.510;6.686;2023-04-28T12:39:27;96364.13;;;21.91;73.85
57644;BME280;43474;46.510;6.686;2023-04-28T12:41:53;96353.06;;;21.48;74.17
57644;BME280;43474;46.510;6.686;2023-04-28T12:44:24;96366.53;;;21.39;76.27
57644;BME280;43474;46.510;6.686;2023-04-28T12:46:50;96364.97;;;21.25;80.06
57644;BME280;43474;46.510;6.686;2023-04-28T12:49:16;96369.25;;;21.26;80.63
57644;BME280;43474;46.510;6.686;2023-04-28T12:51:42;96371.91;;;21.03;77.75
57644;BME280;43474;46.510;6.686;2023-04-28T12:54:07;96348.00;;;20.88;81.79
57644;BME280;43474;46.510;6.686;2023-04-28T12:56:33;96365.59;;;20.85;79.39
57644;BME280;43474;46.510;6.686;2023-04-28T12:58:59;96364.03;;;21.07;79.45
57644;BME280;43474;46.510;6.686;2023-04-28T13:01:29;96354.81;;;21.08;82.85
57644;BME280;43474;46.510;6.686;2023-04-28T13:03:55;96351.72;;;21.14;84.13
57644;BME280;43474;46.510;6.686;2023-04-28T13:06:21;96362.97;;;21.30;82.47
57644;BME280;43474;46.510;6.686;2023-04-28T13:08:46;96340.56;;;21.30;78.43
57644;BME280;43474;46.510;6.686;2023-04-28T13:11:12;96352.66;;;21.55;78.81
57644;BME280;43474;46.510;6.686;2023-04-28T13:13:37;96347.66;;;21.71;80.71
57644;BME280;43474;46.510;6.686;2023-04-28T13:16:03;96338.56;;;21.89;77.40
57644;BME280;43474;46.510;6.686;2023-04-28T13:18:30;96343.22;;;22.06;79.85
57644;BME280;43474;46.510;6.686;2023-04-28T13:20:56;96336.72;;;22.07;77.44
57644;BME280;43474;46.510;6.686;2023-04-28T13:23:21;96341.09;;;22.25;73.44
57644;BME280;43474;46.510;6.686;2023-04-28T13:25:47;96325.66;;;22.17;76.70
57644;BME280;43474;46.510;6.686;2023-04-28T13:28:12;96331.59;;;22.36;76.12